Time;durP1;ratioP1;P1;durP2;ratioP2;P2;SDS_P1;SDS_P2;PMS_P1;PMS_P2;Temp;Humidity;BMP_temperature;BMP_pressure;BME280_temperature;BME280_humidity;BME280_pressure;Samples;Min_cycle;Max_cycle;Signal;HPM_P1;HPM_P2
2022/05/05 00:07:18;;;;;;;5.97;2.80;;;11.20;99.90;;;;;;6677951;89;20700;-78
2022/05/05 00:17:19;;;;;;;8.23;3.40;;;11.20;99.90;;;;;;6672431;89;20646;-79
2022/05/05 00:27:21;;;;;;;7.85;3.47;;;11.40;99.90;;;;;;6668611;89;20207;-79
2022/05/05 00:37:21;;;;;;;7.45;3.28;;;11.30;99.90;;;;;;6673746;89;20175;-78
2022/05/05 00:47:22;;;;;;;7.87;3.17;;;11.00;99.90;;;;;;6674645;89;20774;-78
2022/05/05 00:57:23;;;;;;;9.38;3.55;;;11.10;99.90;;;;;;6674922;89;20206;-79
2022/05/05 01:07:25;;;;;;;9.38;3.87;;;10.70;99.90;;;;;;6668567;88;20230;-78
2022/05/05 01:17:28;;;;;;;12.88;4.30;;;10.50;99.90;;;;;;6670134;89;20199;-79
2022/05/05 01:38:02;;;;;;;8.05;4.37;;;10.10;99.90;;;;;;6650216;89;20245;-79
2022/05/05 01:48:03;;;;;;;9.75;4.07;;;10.10;99.90;;;;;;6656937;88;20315;-79
2022/05/05 01:58:04;;;;;;;9.50;4.47;;;10.30;99.90;;;;;;6654707;88;20184;-79
2022/05/05 02:08:04;;;;;;;10.55;4.60;;;10.30;99.90;;;;;;6655117;89;20235;-79
2022/05/05 02:18:10;;;;;;;11.63;4.97;;;10.10;99.90;;;;;;6655398;89;20408;-79
2022/05/05 02:28:11;;;;;;;10.07;5.00;;;10.40;99.90;;;;;;6657881;88;20324;-79
2022/05/05 02:48:30;;;;;;;11.77;4.20;;;9.80;99.90;;;;;;6656535;89;20208;-79
2022/05/05 02:58:31;;;;;;;11.50;4.43;;;10.10;99.90;;;;;;6658224;89;20351;-78
2022/05/05 03:08:31;;;;;;;9.55;4.50;;;9.80;99.90;;;;;;6672944;89;20202;-79
2022/05/05 03:18:32;;;;;;;9.82;4.25;;;9.50;99.90;;;;;;6672727;89;20325;-78
2022/05/05 03:28:32;;;;;;;9.02;4.37;;;9.40;99.90;;;;;;6668346;89;20191;-78
2022/05/05 03:38:33;;;;;;;10.25;4.35;;;9.60;99.90;;;;;;6672382;89;20580;-78
2022/05/05 03:48:33;;;;;;;8.02;4.22;;;9.50;99.90;;;;;;6671590;89;20215;-79
2022/05/05 03:58:34;;;;;;;13.47;4.77;;;9.70;99.90;;;;;;6671856;89;20368;-79
2022/05/05 04:08:37;;;;;;;9.88;4.35;;;9.70;99.90;;;;;;6670725;89;20604;-78
2022/05/05 04:18:37;;;;;;;7.50;4.43;;;9.40;99.90;;;;;;6675107;89;20239;-79
2022/05/05 04:28:40;;;;;;;11.77;5.23;;;9.20;99.90;;;;;;6674614;89;20199;-79
2022/05/05 04:38:42;;;;;;;11.32;5.15;;;9.40;99.90;;;;;;6674066;88;20502;-79
2022/05/05 04:48:42;;;;;;;12.13;4.95;;;9.30;99.90;;;;;;6674321;89;20359;-78
2022/05/05 05:08:47;;;;;;;9.73;5.12;;;9.20;99.90;;;;;;6651995;89;20729;-77
2022/05/05 05:18:50;;;;;;;11.80;5.78;;;9.30;99.90;;;;;;6711170;88;20188;-79
2022/05/05 05:28:50;;;;;;;14.35;6.28;;;9.60;99.90;;;;;;6650533;88;20210;-77
2022/05/05 05:38:51;;;;;;;15.70;7.12;;;10.40;99.90;;;;;;6707620;88;20600;-77
2022/05/05 05:48:52;;;;;;;15.30;6.47;;;10.50;99.90;;;;;;6695420;88;20390;-77
2022/05/05 05:58:53;;;;;;;15.68;7.10;;;10.60;99.90;;;;;;6738921;88;20174;-77
2022/05/05 06:08:53;;;;;;;17.85;7.37;;;11.00;99.90;;;;;;6674229;88;20682;-78
2022/05/05 06:18:54;;;;;;;18.05;8.15;;;11.40;99.90;;;;;;6734245;87;20224;-77
2022/05/05 06:28:55;;;;;;;23.55;9.32;;;11.60;99.90;;;;;;6739004;88;20188;-77
2022/05/05 06:38:55;;;;;;;20.75;9.40;;;12.20;99.90;;;;;;6740192;88;20185;-78
2022/05/05 06:48:57;;;;;;;18.37;9.35;;;13.30;99.90;;;;;;6729203;88;20200;-78
2022/05/05 06:58:57;;;;;;;23.12;10.07;;;14.10;99.90;;;;;;6743819;88;20149;-78
2022/05/05 07:19:17;;;;;;;21.70;10.93;;;15.20;99.90;;;;;;6681551;88;20178;-78
2022/05/05 07:29:17;;;;;;;22.05;10.82;;;15.50;99.90;;;;;;6738134;88;20297;-77
2022/05/05 07:39:18;;;;;;;23.35;11.18;;;15.60;99.90;;;;;;6734707;88;20214;-78
2022/05/05 07:49:19;;;;;;;22.00;10.65;;;15.90;99.90;;;;;;6741415;88;20185;-78
2022/05/05 07:59:20;;;;;;;21.20;10.85;;;16.20;99.90;;;;;;6731343;88;20720;-78
2022/05/05 08:09:20;;;;;;;20.35;10.68;;;17.00;99.90;;;;;;6710513;88;20323;-77
2022/05/05 08:19:21;;;;;;;18.70;10.20;;;17.40;99.90;;;;;;6706742;88;20209;-78
2022/05/05 08:29:22;;;;;;;22.15;11.05;;;17.80;99.90;;;;;;6733549;88;20198;-78
2022/05/05 08:39:22;;;;;;;21.60;11.63;;;18.00;99.90;;;;;;6708850;88;20904;-78
2022/05/05 08:49:23;;;;;;;26.05;12.37;;;18.40;99.90;;;;;;6742445;88;21047;-78
2022/05/05 08:59:25;;;;;;;23.60;11.57;;;19.10;99.10;;;;;;6736536;88;20204;-77
2022/05/05 09:09:29;;;;;;;24.00;12.25;;;19.80;99.20;;;;;;6647186;89;20834;-78
2022/05/05 09:19:34;;;;;;;23.83;11.32;;;20.20;97.50;;;;;;6748373;87;20193;-79
2022/05/05 09:29:34;;;;;;;24.70;10.30;;;20.10;97.20;;;;;;6737362;88;20198;-77
2022/05/05 09:39:35;;;;;;;19.15;9.90;;;20.40;95.80;;;;;;6733103;87;20195;-78
2022/05/05 09:49:36;;;;;;;16.65;8.77;;;20.60;94.60;;;;;;6722934;88;20190;-77
2022/05/05 09:59:42;;;;;;;15.20;8.23;;;21.30;93.10;;;;;;6736005;88;20217;-78
2022/05/05 10:09:44;;;;;;;18.12;9.45;;;22.20;91.00;;;;;;6732027;87;20321;-78
2022/05/05 10:19:45;;;;;;;20.42;10.20;;;23.00;87.20;;;;;;6735486;88;20197;-78
2022/05/05 10:29:46;;;;;;;21.48;11.25;;;23.60;84.80;;;;;;6647941;88;20208;-77
2022/05/05 10:40:03;;;;;;;23.60;12.70;;;24.20;81.70;;;;;;6648680;89;20213;-78
2022/05/05 10:50:04;;;;;;;24.00;12.40;;;24.20;81.90;;;;;;6741049;88;20184;-77
2022/05/05 11:00:09;;;;;;;20.85;10.80;;;23.60;81.30;;;;;;6733166;88;20223;-78
2022/05/05 11:11:39;;;;;;;17.52;10.45;;;23.90;82.30;;;;;;6716296;88;20207;-79
2022/05/05 11:21:35;;;;;;;19.17;11.35;;;24.90;80.20;;;;;;6736864;88;20214;-79
2022/05/05 11:31:36;;;;;;;19.50;11.40;;;25.10;77.60;;;;;;6731187;88;20300;-79
2022/05/05 11:41:36;;;;;;;17.12;11.05;;;25.40;76.60;;;;;;6737929;88;20197;-79
2022/05/05 11:51:37;;;;;;;20.12;12.23;;;25.10;77.40;;;;;;6713807;88;20246;-79
2022/05/05 12:01:41;;;;;;;17.73;11.77;;;24.90;76.50;;;;;;6718798;88;20196;-78
2022/05/05 12:11:43;;;;;;;20.88;12.25;;;24.80;76.10;;;;;;6738029;88;20581;-79
2022/05/05 12:21:55;;;;;;;18.37;11.98;;;24.90;75.20;;;;;;6733538;88;20678;-79
2022/05/05 12:31:55;;;;;;;19.05;10.98;;;24.50;75.00;;;;;;6731756;88;20207;-79
2022/05/05 12:42:02;;;;;;;17.83;10.17;;;23.50;76.20;;;;;;6730525;88;20189;-79
2022/05/05 12:52:04;;;;;;;15.70;9.45;;;23.40;78.10;;;;;;6737286;88;21040;-78
2022/05/05 13:02:05;;;;;;;17.12;7.78;;;24.80;74.90;;;;;;6657189;89;20201;-79
2022/05/05 13:12:06;;;;;;;14.07;9.30;;;26.40;72.60;;;;;;6650589;89;20327;-79
2022/05/05 13:22:06;;;;;;;14.65;8.50;;;26.60;70.40;;;;;;6677668;88;20215;-79
2022/05/05 13:32:08;;;;;;;13.38;7.30;;;25.80;69.60;;;;;;6738684;87;20206;-79
2022/05/05 13:42:08;;;;;;;10.45;7.05;;;26.20;69.50;;;;;;6737045;88;20226;-79
2022/05/05 13:52:09;;;;;;;14.07;8.23;;;25.50;70.20;;;;;;6724304;88;20306;-78
2022/05/05 14:02:09;;;;;;;12.10;6.40;;;24.70;70.10;;;;;;6715955;88;20185;-79
2022/05/05 14:12:13;;;;;;;12.27;7.63;;;26.40;69.30;;;;;;6733449;88;20836;-78
2022/05/05 14:22:13;;;;;;;12.25;6.60;;;26.10;69.00;;;;;;6732349;88;20310;-79
2022/05/05 14:32:14;;;;;;;12.70;6.80;;;26.60;69.80;;;;;;6648617;88;20575;-78
2022/05/05 14:42:15;;;;;;;8.63;6.30;;;26.70;68.40;;;;;;6665374;88;20203;-78
2022/05/05 14:52:16;;;;;;;10.43;5.90;;;25.90;68.00;;;;;;6746671;88;20199;-78
2022/05/05 15:02:17;;;;;;;12.48;5.97;;;25.10;67.90;;;;;;6736159;88;20229;-77
2022/05/05 15:12:18;;;;;;;14.82;6.43;;;25.00;68.70;;;;;;6735914;88;20202;-78
2022/05/05 15:22:19;;;;;;;11.27;5.75;;;25.10;68.30;;;;;;6731473;88;20184;-78
2022/05/05 15:32:19;;;;;;;10.82;5.20;;;25.00;67.80;;;;;;6735912;88;20242;-79
2022/05/05 15:42:20;;;;;;;11.65;4.90;;;24.60;68.20;;;;;;6738047;88;20191;-78
2022/05/05 15:52:22;;;;;;;8.93;4.90;;;23.50;69.40;;;;;;6739657;88;20201;-77
2022/05/05 16:02:24;;;;;;;9.35;4.70;;;22.90;69.50;;;;;;6649672;88;20197;-78
2022/05/05 16:12:24;;;;;;;9.45;4.82;;;23.20;69.70;;;;;;6737430;88;21081;-78
2022/05/05 16:22:25;;;;;;;7.35;4.30;;;23.00;71.10;;;;;;6736872;88;20654;-78
2022/05/05 16:32:26;;;;;;;14.57;4.97;;;23.30;71.10;;;;;;6740157;88;20177;-79
2022/05/05 16:42:26;;;;;;;8.02;4.25;;;23.20;71.30;;;;;;6741699;88;20498;-81
2022/05/05 16:52:27;;;;;;;8.07;5.22;;;23.40;70.90;;;;;;6744559;88;20261;-78
2022/05/05 17:02:28;;;;;;;7.33;3.67;;;23.00;70.70;;;;;;6737218;76;20260;-77
2022/05/05 17:12:29;;;;;;;8.80;3.77;;;22.60;71.20;;;;;;6724748;88;20226;-78
2022/05/05 17:22:30;;;;;;;8.15;4.57;;;22.50;70.40;;;;;;6729153;88;20634;-77
2022/05/05 17:32:31;;;;;;;11.18;4.70;;;23.50;69.20;;;;;;6722405;88;20313;-77
2022/05/05 17:42:32;;;;;;;10.73;4.22;;;23.20;68.90;;;;;;6718360;88;20190;-78
2022/05/05 17:52:33;;;;;;;7.80;3.60;;;21.80;69.80;;;;;;6716250;88;20193;-79
2022/05/05 18:02:34;;;;;;;11.00;4.40;;;21.50;71.90;;;;;;6728932;88;20547;-80
2022/05/05 18:12:35;;;;;;;9.05;4.47;;;20.90;73.70;;;;;;6726622;88;20185;-80
2022/05/05 18:22:35;;;;;;;8.48;4.05;;;20.00;75.90;;;;;;6720464;88;20185;-79
2022/05/05 18:32:41;;;;;;;8.50;3.70;;;19.50;77.80;;;;;;6715534;88;20205;-79
2022/05/05 18:42:41;;;;;;;7.25;3.55;;;19.10;77.70;;;;;;6717315;88;20192;-77
2022/05/05 18:52:42;;;;;;;7.30;3.60;;;18.80;79.00;;;;;;6717207;88;20675;-79
2022/05/05 19:02:43;;;;;;;5.72;3.17;;;18.50;80.40;;;;;;6720416;88;20218;-78
2022/05/05 19:12:44;;;;;;;6.32;3.55;;;18.20;81.90;;;;;;6715625;88;20204;-77
2022/05/05 19:22:45;;;;;;;6.87;3.62;;;18.00;82.90;;;;;;6715188;88;20719;-76
2022/05/05 19:32:46;;;;;;;7.47;3.30;;;17.50;84.70;;;;;;6715206;88;20309;-78
2022/05/05 19:42:46;;;;;;;8.90;3.83;;;17.10;85.80;;;;;;6701699;88;20194;-79
2022/05/05 19:52:47;;;;;;;6.87;3.65;;;16.80;87.30;;;;;;6726621;88;20258;-77
2022/05/05 20:02:48;;;;;;;12.40;6.37;;;16.60;89.00;;;;;;6715218;88;20225;-79
2022/05/05 20:12:48;;;;;;;8.10;4.37;;;16.30;90.80;;;;;;6714195;88;20189;-77
2022/05/05 20:22:49;;;;;;;9.57;4.50;;;16.10;92.20;;;;;;6714573;88;20489;-77
2022/05/05 20:32:49;;;;;;;7.90;4.10;;;15.90;93.50;;;;;;6714405;88;20658;-78
2022/05/05 20:42:50;;;;;;;6.68;4.18;;;15.60;95.00;;;;;;6708579;88;20251;-77
2022/05/05 20:52:51;;;;;;;7.62;4.55;;;15.40;96.70;;;;;;6722258;88;20244;-80
2022/05/05 21:02:51;;;;;;;11.20;6.45;;;15.00;98.60;;;;;;6726131;88;20300;-78
2022/05/05 21:12:52;;;;;;;6.70;4.78;;;14.80;99.90;;;;;;6722541;88;20323;-78
2022/05/05 21:33:12;;;;;;;9.90;4.43;;;14.30;99.90;;;;;;6717124;88;20234;-78
2022/05/05 21:43:13;;;;;;;10.15;4.45;;;14.20;99.90;;;;;;6722544;88;20339;-78
2022/05/05 21:53:14;;;;;;;8.30;4.55;;;14.10;99.90;;;;;;6724908;88;20177;-78
2022/05/05 22:03:17;;;;;;;13.02;6.95;;;13.90;99.90;;;;;;6730490;88;20811;-79
2022/05/05 22:13:20;;;;;;;13.65;5.57;;;13.80;99.90;;;;;;6722344;88;20219;-78
2022/05/05 22:23:21;;;;;;;12.02;6.40;;;13.80;99.90;;;;;;6720663;88;20351;-78
2022/05/05 22:33:22;;;;;;;7.90;5.50;;;13.40;99.90;;;;;;6721221;88;20261;-78
2022/05/05 22:43:22;;;;;;;8.23;5.03;;;13.10;99.90;;;;;;6714003;88;20287;-77
2022/05/05 22:53:23;;;;;;;9.98;5.72;;;12.80;99.90;;;;;;6717093;88;20711;-78
2022/05/05 23:03:24;;;;;;;10.70;6.00;;;12.70;99.90;;;;;;6719367;77;20199;-76
2022/05/05 23:13:24;;;;;;;12.05;6.43;;;13.10;99.90;;;;;;6725179;88;20184;-77
2022/05/05 23:23:25;;;;;;;11.52;7.03;;;12.50;99.90;;;;;;6691616;88;20180;-76
2022/05/05 23:33:25;;;;;;;11.20;5.87;;;12.40;99.90;;;;;;6695864;88;20206;-79
2022/05/05 23:43:26;;;;;;;11.45;6.07;;;12.30;99.90;;;;;;6720916;88;20641;-77
2022/05/05 23:53:26;;;;;;;9.60;5.93;;;11.90;99.90;;;;;;6723332;88;20193;-78
